Station info - map view · info · telemetry · weather · raw · status · beacons · messages · bulletins · browse · moving · my account
Callsign, ship name or locator: Clear       
It is possible to search using wildcards (*?) after a prefix. Example: OH*
APRS station HG9MET-9 - show graphs
Map loading...
Comment: QTH: OZD, OP:Tom
Mic-E message: En route
Location: 47°51.69' N 11°28.42' E - locator JN57RU66US - show map - static map
2.7 miles Northwest bearing 335° from Berg, Regierungsbezirk Oberbayern, Bavaria, Germany [?]
5.7 miles West bearing 279° from Dietramszell, Regierungsbezirk Oberbayern, Bavaria, Germany
19.6 miles South bearing 194° from München (Muenchen), Regierungsbezirk Oberbayern, Bavaria, Germany
44.2 miles Southeast bearing 142° from Augsburg, Regierungsbezirk Schwaben, Bavaria, Germany
Last position: 2017-01-23 00:55:31 EST (13h16m ago)
2017-01-23 06:55:31 CET local time at Berg, Germany [?]
Altitude: 1962 ft
Course: 115°
Speed: 26 MPH
Last path: HG9MET-9>TW5Q69 via WIDE1-1,WIDE2-2,qAR,DB0OAL (good)
Positions stored: 108668
Other SSIDs: HG9MET HG9MET-7 HG9MET-C
Stations near current position of HG9MET-9 - show more
callsign distance last heard - EST      callsign distance last heard - EST
HG9MET-73.3 miles 328°2017-01-23 09:18:50 EW72373.9 miles 337°2017-01-23 14:09:52
DW96773.9 miles 329°2017-01-23 14:11:16 HG9MET4.8 miles 330°2017-01-23 14:00:12
L2233604_5.7 miles 291°2017-01-10 20:01:15 Jasberg7.5 miles 75°2017-01-15 07:55:54
CW03348.7 miles 214°2017-01-22 20:03:10 DB0TOL-B8.8 miles 142°2017-01-23 14:07:21
DB0ISW8.8 miles 173°2017-01-23 14:07:14 M12432219.2 miles 136°2017-01-15 07:39:40
L16336039.3 miles 257°2017-01-23 01:31:53 M1243221_9.6 miles 133°2017-01-15 07:40:26
DL1MSB B10.2 miles 195°2017-01-22 07:51:11 DL1MSB-B10.2 miles 195°2017-01-22 07:51:21
L1633603_10.4 miles 233°2017-01-23 01:31:14 DB0HKN10.5 miles 81°2017-01-23 14:07:25
DL6FZ-Y10.6 miles 82°2016-12-26 06:50:34 DD5KI-711.2 miles 82°2017-01-23 06:25:00
DL1MSB-111.4 miles 239°2017-01-17 11:19:49 DD5KI-911.8 miles 79°2017-01-23 06:21:32
Stations which heard HG9MET-9 directly on radio –
callsign pkts first heard - EST last heard longest (tx => rx) longest at - EST
DB0RZ 1 2017-01-21 07:36:33 2017-01-21 07:36:33 JN57SQ > JN48SD 98.5 miles 291° 2017-01-21 07:36:33
OE5XOR 28 2017-01-01 16:03:19 2017-01-01 17:13:55 JN67SX > JN78DJ 45.2 miles 45° 2017-01-01 17:13:55
OE6XTR 90 2017-01-01 07:40:09 2017-01-01 15:13:21 KN07ER > JN77VN 215.1 miles 269° 2017-01-01 08:24:52
OE7XAR-11 6 2017-01-01 18:37:28 2017-01-01 18:46:13 JN57XT > JN67CN 21.4 miles 143° 2017-01-01 18:46:13
HG5PBD-2 32 2017-01-01 08:12:30 2017-01-01 10:53:38 KN07EU > JN97LN 66.9 miles 253° 2017-01-01 08:12:30
HG6PGA-1 20 2017-01-01 07:43:22 2017-01-01 09:15:41 JN97PL > JN97XV 40.9 miles 42° 2017-01-01 09:15:41
OE2XHR-11 1 2017-01-21 09:33:28 2017-01-21 09:33:28 JN57PO > JN67MK 82.1 miles 98° 2017-01-21 09:33:28
HG1PNY-1 60 2017-01-01 11:10:19 2017-01-01 14:18:49 JN87LW > JN87TN 42.9 miles 127° 2017-01-01 14:18:49
OE3ZK 2 2017-01-01 14:35:35 2017-01-01 14:52:15 JN88HC > JN88DH 19.9 miles 312° 2017-01-01 14:35:35
OE3XKR 1 2017-01-01 14:20:52 2017-01-01 14:20:52 JN87KX > JN88EN 47.3 miles 332° 2017-01-01 14:20:52
DL5MAM 27 2017-01-01 18:58:56 2017-01-22 11:07:49 JN57SQ > JN58UB 27.8 miles 12° 2017-01-21 03:48:50
OE5ERN-10 4 2017-01-01 16:27:04 2017-01-01 16:37:26 JN78GE > JN78DH 15.3 miles 312° 2017-01-01 16:27:04
OE1SSU-10 2 2017-01-01 14:45:20 2017-01-01 14:57:59 JN88FD > JN88DD 9.3 miles 272° 2017-01-01 14:57:59
OE3XXR 3 2017-01-01 16:25:03 2017-01-01 16:28:48 JN78GE > JN78GD 3.3 miles 155° 2017-01-01 16:28:48
DB0EL 4 2017-01-01 18:59:37 2017-01-01 19:06:46 JN57UX > JN58SE 15.3 miles 336° 2017-01-01 18:59:37
OK2ULQ-3 1 2017-01-01 15:18:51 2017-01-01 15:18:51 JN88BB > JN89VJ 119.2 miles 39° 2017-01-01 15:18:51
HG1DFB-1 4 2017-01-01 10:46:44 2017-01-01 10:55:37 JN97HM > JN97JL 10.3 miles 107° 2017-01-01 10:55:37
OE5XIM-10 2 2017-01-01 16:04:00 2017-01-01 16:21:05 JN78MD > JN78DN 46.7 miles 309° 2017-01-01 16:04:00
DH2RL-2 1 2017-01-22 11:19:21 2017-01-22 11:19:21 JN57US > JN68CQ 68.1 miles 21° 2017-01-22 11:19:21
OE5XGL-10 29 2017-01-01 16:01:57 2017-01-01 17:28:06 JN78ND > JN67VV 62.4 miles 254° 2017-01-01 16:01:57
OE1SSU-12 25 2017-01-01 14:37:36 2017-01-01 15:16:15 JN88GD > JN88DD 13.2 miles 273° 2017-01-01 14:37:36
OE5REO-10 19 2017-01-01 16:19:22 2017-01-01 16:57:30 JN78IC > JN77BV 29.8 miles 242° 2017-01-01 16:19:22
OE2XZR 2 2017-01-01 17:37:02 2017-01-01 18:03:06 JN67LS > JN67NT 8.1 miles 82° 2017-01-01 18:03:06
OE1IWA-10 5 2017-01-01 15:04:46 2017-01-01 15:11:12 JN88DC > JN88ED 4.4 miles 63° 2017-01-01 15:11:12
OE3XIA-10 14 2017-01-01 14:14:02 2017-01-01 16:08:06 JN78LD > JN88CF 59.9 miles 82° 2017-01-01 16:08:06
OE2XZR-10 35 2017-01-01 17:30:09 2017-01-01 19:00:32 JN57UX > JN67NT 67.0 miles 100° 2017-01-01 19:00:32
OE3MZC-2 10 2017-01-01 15:26:46 2017-01-01 15:43:50 JN78SE > JN78XE 16.4 miles 84° 2017-01-01 15:43:50
OE5HPM-10 9 2017-01-01 17:16:39 2017-01-01 18:12:49 JN67JT > JN68NE 30.2 miles 30° 2017-01-01 18:12:49
OE5XBL-10 8 2017-01-01 18:28:52 2017-01-22 11:26:01 JN57SS > JN68PC 83.7 miles 73° 2017-01-22 11:26:01
DB0SAA-10 1 2017-01-22 11:04:02 2017-01-22 11:04:02 JN57UR > JN58BT 105.9 miles 315° 2017-01-22 11:04:02
OE3REC-11 4 2017-01-01 14:28:27 2017-01-01 14:43:35 JN88JB > JN88HE 11.0 miles 322° 2017-01-01 14:28:27
OE1ACM-12 13 2017-01-01 14:35:54 2017-01-01 15:11:42 JN88DC > JN88FF 12.0 miles 50° 2017-01-01 15:11:42
HA5OB-11 22 2017-01-01 09:07:54 2017-01-01 10:45:02 JN97KL > JN97NL 13.6 miles 88° 2017-01-01 10:45:02
HG7PDK-2 25 2017-01-01 09:00:46 2017-01-01 13:20:33 JN87XQ > JN97KR 45.4 miles 86° 2017-01-01 13:20:33
HG5PGE-2 41 2017-01-01 10:49:09 2017-01-01 14:17:55 JN87LW > JN97FQ 74.4 miles 104° 2017-01-01 14:17:55
OE3VBA-10 2 2017-01-01 15:49:59 2017-01-01 15:55:27 JN78PF > JN78RG 9.7 miles 68° 2017-01-01 15:55:27
OE2XGR-10 1 2017-01-01 17:53:50 2017-01-01 17:53:50 JN67MT > JN67OH 37.4 miles 163° 2017-01-01 17:53:50
HG4PND-1 5 2017-01-01 09:12:43 2017-01-01 10:56:59 JN97PM > JN97HG 37.5 miles 242° 2017-01-01 09:12:43
OE3XNR 1 2017-01-01 16:19:06 2017-01-01 16:19:06 JN78IC > JN78JQ 38.4 miles 4° 2017-01-01 16:19:06
OE3RNB-10 3 2017-01-01 15:26:25 2017-01-01 15:29:19 JN78XD > JN88AG 10.1 miles 26° 2017-01-01 15:26:25
OE3XHB-10 8 2017-01-01 15:30:36 2017-01-01 16:11:31 JN78XD > JN78QI 29.9 miles 295° 2017-01-01 15:30:36
DB0OAL 17 2017-01-06 05:29:33 2017-01-23 00:55:31 JN57SU > JN57JN 39.9 miles 239° 2017-01-21 03:11:35
OE3PDB-12 8 2017-01-01 14:41:33 2017-01-01 15:38:22 JN88FD > JN88BG 19.4 miles 292° 2017-01-01 14:41:33
OE3XFW-10 1 2017-01-01 15:34:16 2017-01-01 15:34:16 JN78WE > JN78XD 7.5 miles 109° 2017-01-01 15:34:16
DM0GAP-1 16 2017-01-05 05:38:56 2017-01-21 09:38:40 JN57RV > JN57NM 29.9 miles 208° 2017-01-16 00:52:01
OE2XPR 11 2017-01-01 17:23:19 2017-01-01 18:13:10 JN67RU > JN67MW 20.4 miles 294° 2017-01-01 17:23:19
HG5CJW-10 13 2017-01-01 07:21:37 2017-01-01 07:48:45 KN08DE > KN08EB 9.2 miles 162° 2017-01-01 07:21:37
HG5CJW 21 2017-01-01 09:21:04 2017-01-01 10:52:12 JN97PJ > JN97KJ 20.6 miles 272° 2017-01-01 09:21:04
HG8PKA-2 1 2017-01-01 10:39:27 2017-01-01 10:39:27 JN97LK > JN96LM 60.9 miles 177° 2017-01-01 10:39:27
HG5CJW-12 9 2017-01-01 09:13:02 2017-01-01 09:28:15 JN97PJ > JN97ML 15.6 miles 294° 2017-01-01 09:20:23
DB0HHB 1 2017-01-01 18:07:21 2017-01-01 18:07:21 JN67KS > JN69LF 100.6 miles 1° 2017-01-01 18:07:21
DO3MBJ-10 1 2017-01-22 03:45:46 2017-01-22 03:45:46 JN57UR > JN58RM 56.8 miles 349° 2017-01-22 03:45:46
OE3XLR 34 2017-01-01 14:34:52 2017-01-01 16:51:43 JN78AB > JN77TX 72.0 miles 96° 2017-01-01 16:51:43
OE5XHR-10 12 2017-01-01 16:43:51 2017-01-22 11:07:18 JN57UR > JN68XR 123.0 miles 55° 2017-01-22 11:07:18
OE5EBO-10 2 2017-01-01 17:34:56 2017-01-01 18:12:08 JN67NU > JN68KD 22.9 miles 330° 2017-01-01 17:34:56
HG5CJW-13 5 2017-01-01 09:28:35 2017-01-01 10:40:05 JN97LK > JN97NJ 9.0 miles 108° 2017-01-01 10:40:05
DB0DLG-10 1 2017-01-21 10:22:57 2017-01-21 10:22:57 JN57QR > JN58FM 70.9 miles 321° 2017-01-21 10:22:57
OE5WWO 3 2017-01-01 16:28:26 2017-01-01 16:46:15 JN78BD > JN78DH 12.1 miles 36° 2017-01-01 16:46:15
OE2XWR-10 36 2017-01-01 18:18:37 2017-01-23 00:49:34 JN57RW > JN67IE 77.6 miles 130° 2017-01-17 11:22:37
HG9PKK-2 49 2017-01-01 07:15:44 2017-01-01 09:16:17 JN97PL > KN08FB 67.4 miles 52° 2017-01-01 09:16:17
OE3PDB-1 1 2017-01-01 14:34:32 2017-01-01 14:34:32 JN88HC > JN88HD 3.4 miles 332° 2017-01-01 14:34:32
OE5LHM-10 37 2017-01-01 16:01:36 2017-01-01 17:18:42 JN67RW > JN78GH 55.0 miles 60° 2017-01-01 17:18:42
HG6PGA-10 74 2017-01-01 07:22:24 2017-01-01 10:41:48 JN97KK > JN97XV 58.1 miles 54° 2017-01-01 10:41:48
OE3XMC-10 5 2017-01-01 14:39:39 2017-01-01 15:01:22 JN88GD > JN88FD 2.4 miles 271° 2017-01-01 14:39:39
DB0MUC 4 2017-01-06 06:06:52 2017-01-22 09:53:22 JN57VQ > JN58SD 34.1 miles 344° 2017-01-22 09:53:22

Only position packets which were originated by the station are shown here. The range statistics show some extra long hops, because some digipeaters do not correctly add themselves to the digipeater path. Please check the raw packets.
About this site
This page shows real-time information collected from the Automatic Position Reporting System Internet network (APRS-IS). APRS is used by amateur (ham) radio operators to transmit real-time position information, weather data, telemetry and messages over the radio. A vehicle equipped with a GPS receiver, a VHF transmitter or HF transceiver and a small computer device called a tracker transmits it's location, speed and course in a small data packet, which is then received by a nearby iGate receiving site which forwards the packet on the Internet. Systems connected to the Internet can send information on the APRS-IS without a radio transmitter, or collect and display information transmitted anywhere in the world.
FAQ · Blog · Discussion group · Linking to aprs.fi · AIS sites · Service status · Database statistics · Advertising on aprs.fi · Technical details · API · Change log · Planned changes · Credits and thanks · Terms Of Service · iPhone/iPad APRS